Time;durP1;ratioP1;P1;durP2;ratioP2;P2;SDS_P1;SDS_P2;PMS_P1;PMS_P2;Temp;Humidity;BMP_temperature;BMP_pressure;BME280_temperature;BME280_humidity;BME280_pressure;Samples;Min_cycle;Max_cycle;Signal;HPM_P1;HPM_P2
2022/09/20 00:00:30;;;;;;;6.53;4.35;;;8.80;99.90;;;;;;5096889;28;20212;-83
2022/09/20 00:02:59;;;;;;;4.95;4.60;;;8.80;99.90;;;;;;5080365;28;20319;-84
2022/09/20 00:05:25;;;;;;;5.68;4.45;;;8.80;99.90;;;;;;5076804;28;20255;-83
2022/09/20 00:07:52;;;;;;;4.78;4.32;;;8.90;99.90;;;;;;5076152;28;20830;-82
2022/09/20 00:10:21;;;;;;;11.98;6.00;;;8.90;99.90;;;;;;5076832;28;20213;-84
2022/09/20 00:12:47;;;;;;;7.57;5.90;;;9.00;99.90;;;;;;5076774;28;20580;-83
2022/09/20 00:15:14;;;;;;;7.82;4.68;;;9.00;99.90;;;;;;5076150;28;20201;-83
2022/09/20 00:17:41;;;;;;;5.65;4.90;;;9.00;99.90;;;;;;5076296;28;20205;-83
2022/09/20 00:20:10;;;;;;;6.05;4.90;;;9.00;99.90;;;;;;5076421;28;20206;-83
2022/09/20 00:22:36;;;;;;;4.78;4.38;;;9.00;99.90;;;;;;5078462;28;20207;-84
2022/09/20 00:25:03;;;;;;;4.50;4.05;;;9.10;99.90;;;;;;5096459;28;20204;-83
2022/09/20 00:27:30;;;;;;;7.35;4.80;;;9.10;99.90;;;;;;5096353;28;20232;-84
2022/09/20 00:29:57;;;;;;;5.10;4.65;;;9.10;99.90;;;;;;5095998;28;20215;-84
2022/09/20 00:32:24;;;;;;;4.20;3.80;;;9.00;99.90;;;;;;5102919;28;20222;-84
2022/09/20 00:35:09;;;;;;;4.75;4.30;;;9.00;99.90;;;;;;5096215;28;20207;-83
2022/09/20 00:37:39;;;;;;;7.68;6.28;;;8.90;99.90;;;;;;5095373;28;20190;-83
2022/09/20 00:40:07;;;;;;;4.30;3.83;;;8.90;99.90;;;;;;5076127;28;20205;-83
2022/09/20 00:42:34;;;;;;;4.03;3.72;;;8.90;99.90;;;;;;5075717;28;20201;-82
2022/09/20 00:45:03;;;;;;;5.15;3.83;;;8.90;99.90;;;;;;5075167;28;20235;-83
2022/09/20 00:47:36;;;;;;;4.55;4.15;;;8.90;99.90;;;;;;5084395;28;20203;-82
2022/09/20 00:50:11;;;;;;;5.72;4.20;;;8.90;99.90;;;;;;5096284;28;20185;-82
2022/09/20 00:52:39;;;;;;;5.72;4.65;;;8.90;99.90;;;;;;5081853;28;20752;-83
2022/09/20 00:55:08;;;;;;;4.53;4.13;;;8.90;99.90;;;;;;5075120;28;20212;-83
2022/09/20 00:57:37;;;;;;;4.68;3.70;;;8.80;99.90;;;;;;5075246;28;20209;-84
2022/09/20 01:00:06;;;;;;;5.13;3.80;;;8.80;99.90;;;;;;5074843;28;20220;-83
2022/09/20 01:02:37;;;;;;;5.85;4.90;;;8.80;99.90;;;;;;5075075;28;20678;-83
2022/09/20 01:05:04;;;;;;;6.10;4.40;;;8.80;99.90;;;;;;5082324;28;20193;-82
2022/09/20 01:07:33;;;;;;;6.32;4.07;;;8.80;99.90;;;;;;5094781;28;20211;-82
2022/09/20 01:10:01;;;;;;;4.25;3.92;;;8.80;99.90;;;;;;5094620;28;20217;-83
2022/09/20 01:12:33;;;;;;;4.03;3.45;;;8.70;99.90;;;;;;5095074;28;20592;-82
2022/09/20 01:15:02;;;;;;;5.00;4.50;;;8.70;99.90;;;;;;5094940;28;20193;-83
2022/09/20 01:17:32;;;;;;;4.97;4.57;;;8.70;99.90;;;;;;5094923;28;20210;-82
2022/09/20 01:20:09;;;;;;;4.95;4.15;;;8.70;99.90;;;;;;5094846;28;20184;-83
2022/09/20 01:22:48;;;;;;;5.00;3.75;;;8.70;99.90;;;;;;5094215;28;20195;-84
2022/09/20 01:25:27;;;;;;;5.63;4.07;;;8.70;99.90;;;;;;5080835;28;20189;-80
2022/09/20 01:27:55;;;;;;;5.45;5.03;;;8.70;99.90;;;;;;5074382;28;20190;-82
2022/09/20 01:30:25;;;;;;;6.03;4.38;;;8.70;99.90;;;;;;5074911;28;20201;-83
2022/09/20 01:33:12;;;;;;;5.82;4.20;;;8.70;99.90;;;;;;5088898;28;20242;-84
2022/09/20 01:35:41;;;;;;;4.60;4.20;;;8.80;99.90;;;;;;5095146;28;20231;-84
2022/09/20 01:38:24;;;;;;;5.80;4.00;;;8.80;99.90;;;;;;5079332;28;20204;-82
2022/09/20 01:40:59;;;;;;;4.68;4.28;;;8.80;99.90;;;;;;5074494;28;20209;-83
2022/09/20 01:43:34;;;;;;;7.80;4.22;;;8.80;99.90;;;;;;5074922;28;20235;-83
2022/09/20 01:46:10;;;;;;;7.38;3.95;;;8.80;99.90;;;;;;5076235;28;20204;-82
2022/09/20 01:48:39;;;;;;;4.93;4.53;;;8.80;99.90;;;;;;5074784;28;20595;-82
2022/09/20 01:51:49;;;;;;;5.00;4.60;;;8.80;99.90;;;;;;5074697;28;20205;-83
2022/09/20 01:54:43;;;;;;;5.15;3.95;;;8.80;99.90;;;;;;5074564;28;20276;-83
2022/09/20 01:57:55;;;;;;;5.50;4.07;;;8.90;99.90;;;;;;5074870;28;20193;-82
2022/09/20 02:00:27;;;;;;;5.55;4.35;;;8.90;99.90;;;;;;5061439;28;20212;-83
2022/09/20 02:03:14;;;;;;;9.23;5.60;;;8.90;99.90;;;;;;5074506;28;20224;-84
2022/09/20 02:06:03;;;;;;;6.05;4.80;;;8.90;99.90;;;;;;5091057;28;20212;-82
2022/09/20 02:08:48;;;;;;;6.55;5.32;;;8.80;99.90;;;;;;5093823;28;20238;-82
2022/09/20 02:11:17;;;;;;;5.68;5.13;;;8.90;99.90;;;;;;5074012;28;20193;-81
2022/09/20 02:14:13;;;;;;;5.90;5.32;;;8.90;99.90;;;;;;5076337;28;20225;-83
2022/09/20 02:16:56;;;;;;;4.57;4.28;;;8.90;99.90;;;;;;5067232;28;20573;-81
2022/09/20 02:19:51;;;;;;;4.95;4.10;;;8.90;99.90;;;;;;5081109;28;20185;-84
2022/09/20 02:22:40;;;;;;;4.85;4.28;;;9.00;99.90;;;;;;5094467;28;20219;-84
2022/09/20 02:25:18;;;;;;;5.00;4.60;;;9.00;99.90;;;;;;5083902;28;20682;-82
2022/09/20 02:27:57;;;;;;;5.03;4.53;;;9.00;99.90;;;;;;5076946;28;20224;-83
2022/09/20 02:30:35;;;;;;;6.65;4.53;;;9.00;99.90;;;;;;5091502;28;20196;-82
2022/09/20 02:33:27;;;;;;;4.85;4.47;;;9.00;99.90;;;;;;5082468;28;20240;-83
2022/09/20 02:36:15;;;;;;;4.28;3.97;;;9.10;99.90;;;;;;5097666;28;20216;-84
2022/09/20 02:38:57;;;;;;;4.20;3.90;;;9.10;99.90;;;;;;5086232;28;20197;-83
2022/09/20 02:41:57;;;;;;;5.05;4.55;;;9.20;99.90;;;;;;5087290;28;20209;-84
2022/09/20 02:44:33;;;;;;;4.65;4.25;;;9.20;99.90;;;;;;5093417;28;20236;-84
2022/09/20 02:47:08;;;;;;;5.20;3.70;;;9.30;99.90;;;;;;5091599;28;20194;-81
2022/09/20 02:49:51;;;;;;;4.38;4.00;;;9.30;99.90;;;;;;5098305;28;20216;-81
2022/09/20 02:52:30;;;;;;;9.57;4.47;;;9.20;99.90;;;;;;5104750;28;20208;-84
2022/09/20 02:55:05;;;;;;;5.32;3.75;;;9.20;99.90;;;;;;5084891;28;20205;-84
2022/09/20 02:57:46;;;;;;;5.45;4.97;;;9.30;99.90;;;;;;5077758;28;20208;-84
2022/09/20 03:00:18;;;;;;;5.00;4.50;;;9.30;99.90;;;;;;5090370;28;20216;-83
2022/09/20 03:02:57;;;;;;;5.68;4.45;;;9.30;99.90;;;;;;5078775;28;22034;-84
2022/09/20 03:05:30;;;;;;;4.30;3.90;;;9.30;99.90;;;;;;5094820;28;20229;-84
2022/09/20 03:08:10;;;;;;;4.55;3.90;;;9.30;99.90;;;;;;5099083;28;20212;-84
2022/09/20 03:10:43;;;;;;;4.50;3.65;;;9.30;99.90;;;;;;5084442;28;20196;-84
2022/09/20 03:13:28;;;;;;;6.18;4.00;;;9.40;99.90;;;;;;5081655;28;20236;-83
2022/09/20 03:16:08;;;;;;;7.60;4.90;;;9.50;99.90;;;;;;5101520;28;20605;-84
2022/09/20 03:18:47;;;;;;;5.20;4.70;;;9.50;99.90;;;;;;5087520;28;20206;-83
2022/09/20 03:21:29;;;;;;;4.97;3.63;;;9.50;99.90;;;;;;5081447;28;20208;-84
2022/09/20 03:24:05;;;;;;;4.95;4.05;;;9.50;99.90;;;;;;5081442;28;20230;-83
2022/09/20 03:26:47;;;;;;;4.53;4.22;;;9.60;99.90;;;;;;5081357;28;20240;-84
2022/09/20 03:29:23;;;;;;;4.40;4.00;;;9.50;99.90;;;;;;5081642;28;20203;-84
2022/09/20 03:32:05;;;;;;;4.50;4.10;;;9.60;99.90;;;;;;5078208;28;20201;-82
2022/09/20 03:34:45;;;;;;;13.52;3.92;;;9.50;99.90;;;;;;5077982;28;20727;-83
2022/09/20 03:37:29;;;;;;;6.45;4.65;;;9.60;99.90;;;;;;5077552;28;20197;-83
2022/09/20 03:40:22;;;;;;;3.55;3.25;;;9.50;99.90;;;;;;5077544;28;20202;-83
2022/09/20 03:42:52;;;;;;;5.03;3.90;;;9.50;99.90;;;;;;5077385;28;20232;-83
2022/09/20 03:45:45;;;;;;;4.25;3.60;;;9.40;99.90;;;;;;5077296;28;20223;-82
2022/09/20 03:48:42;;;;;;;4.10;3.70;;;9.40;99.90;;;;;;5076752;28;20210;-83
2022/09/20 03:51:22;;;;;;;6.10;4.25;;;9.30;99.90;;;;;;5076837;28;20198;-82
2022/09/20 03:54:35;;;;;;;4.65;4.35;;;9.40;99.90;;;;;;5076883;28;20220;-82
2022/09/20 03:57:36;;;;;;;4.20;3.90;;;9.40;99.90;;;;;;5088657;28;20208;-83
2022/09/20 04:00:22;;;;;;;4.30;3.85;;;9.40;99.90;;;;;;5097002;28;20217;-83
2022/09/20 04:03:20;;;;;;;5.32;4.35;;;9.50;99.90;;;;;;5079740;28;20307;-83
2022/09/20 04:06:04;;;;;;;4.43;4.00;;;9.50;99.90;;;;;;5086201;28;20606;-82
2022/09/20 04:08:51;;;;;;;4.90;4.30;;;9.50;99.90;;;;;;5096447;28;20208;-83
2022/09/20 04:11:29;;;;;;;3.93;3.10;;;9.50;99.90;;;;;;5083331;28;20205;-83
2022/09/20 04:15:17;;;;;;;5.55;5.05;;;9.60;99.90;;;;;;5117618;22;20492;-85
2022/09/20 04:17:53;;;;;;;4.13;3.72;;;9.60;99.90;;;;;;5064016;28;20207;-85
2022/09/20 04:20:28;;;;;;;5.00;4.25;;;9.60;99.90;;;;;;5068653;28;20237;-86
2022/09/20 04:22:58;;;;;;;5.07;4.53;;;9.60;99.90;;;;;;5084430;28;20208;-85
2022/09/20 04:25:33;;;;;;;3.95;3.65;;;9.70;99.90;;;;;;5100654;28;20214;-84
2022/09/20 04:28:08;;;;;;;6.63;4.43;;;9.70;99.90;;;;;;5104031;28;20202;-85
2022/09/20 04:30:42;;;;;;;10.00;5.80;;;9.70;99.90;;;;;;5094252;28;20198;-85
2022/09/20 04:33:17;;;;;;;9.18;4.07;;;9.70;99.90;;;;;;5083980;28;20208;-85
2022/09/20 04:38:40;;;;;;;4.85;3.65;;;9.80;99.90;;;;;;5083867;28;20227;-84
2022/09/20 04:41:29;;;;;;;4.40;4.10;;;9.80;99.90;;;;;;5097687;28;20204;-85
2022/09/20 04:44:30;;;;;;;4.25;3.85;;;9.60;99.90;;;;;;5084955;28;20480;-84
2022/09/20 04:47:32;;;;;;;6.47;3.55;;;9.50;99.90;;;;;;5069131;28;20201;-83
2022/09/20 04:50:27;;;;;;;4.38;3.83;;;9.50;99.90;;;;;;5043150;28;20306;-83
2022/09/20 04:53:21;;;;;;;4.20;3.90;;;9.50;99.90;;;;;;5079896;28;20194;-83
2022/09/20 04:55:55;;;;;;;4.22;3.92;;;9.50;99.90;;;;;;5088178;28;20191;-83
2022/09/20 04:58:46;;;;;;;7.05;4.43;;;9.50;99.90;;;;;;5081526;28;20796;-84
2022/09/20 05:01:47;;;;;;;7.85;4.10;;;9.40;99.90;;;;;;5081089;28;20205;-84
2022/09/20 05:04:39;;;;;;;5.70;4.90;;;9.40;99.90;;;;;;5100313;28;20239;-83
2022/09/20 05:07:41;;;;;;;5.78;5.10;;;9.30;99.90;;;;;;5092078;28;20228;-83
2022/09/20 05:10:30;;;;;;;5.25;4.80;;;9.30;99.90;;;;;;5062854;28;20217;-83
2022/09/20 05:13:14;;;;;;;4.70;4.30;;;9.30;99.90;;;;;;5080781;28;20205;-84
2022/09/20 05:15:51;;;;;;;7.45;5.00;;;9.50;99.90;;;;;;5079069;28;20687;-84
2022/09/20 05:19:05;;;;;;;6.43;5.20;;;9.40;99.90;;;;;;5079112;28;20285;-83
2022/09/20 05:21:45;;;;;;;10.00;5.05;;;9.20;99.90;;;;;;5020832;28;20209;-84
2022/09/20 05:24:25;;;;;;;6.03;4.35;;;9.20;99.90;;;;;;5079418;28;20234;-83
2022/09/20 05:27:07;;;;;;;6.22;5.60;;;9.20;99.90;;;;;;5092338;28;20199;-82
2022/09/20 05:29:41;;;;;;;5.85;5.07;;;9.20;99.90;;;;;;5099153;28;20201;-84
2022/09/20 05:32:17;;;;;;;5.82;5.25;;;9.20;99.90;;;;;;5089510;28;20200;-84
2022/09/20 05:34:52;;;;;;;7.47;5.97;;;9.20;99.90;;;;;;5080225;28;20696;-84
2022/09/20 05:37:31;;;;;;;7.38;6.10;;;9.30;99.90;;;;;;5094402;28;20208;-83
2022/09/20 05:40:06;;;;;;;8.05;6.40;;;9.30;99.90;;;;;;5098915;28;20208;-84
2022/09/20 05:42:42;;;;;;;8.60;5.80;;;9.40;99.90;;;;;;5082666;28;20202;-83
2022/09/20 05:45:26;;;;;;;7.80;6.18;;;9.40;99.90;;;;;;5089112;28;20228;-83
2022/09/20 05:48:00;;;;;;;8.00;5.45;;;9.40;99.90;;;;;;5099808;28;20205;-83
2022/09/20 05:50:44;;;;;;;6.88;5.63;;;9.50;99.90;;;;;;5107881;28;20554;-83
2022/09/20 05:53:44;;;;;;;8.27;6.50;;;9.60;99.90;;;;;;5100117;28;20669;-84
2022/09/20 05:56:22;;;;;;;6.95;6.18;;;9.60;99.90;;;;;;5059689;28;20202;-85
2022/09/20 05:59:02;;;;;;;7.07;6.43;;;9.50;99.90;;;;;;5095544;28;20199;-84
2022/09/20 06:01:39;;;;;;;8.45;5.60;;;9.50;99.90;;;;;;5098725;28;20215;-83
2022/09/20 06:04:16;;;;;;;5.55;5.05;;;9.50;99.90;;;;;;5098173;28;20229;-83
2022/09/20 06:06:53;;;;;;;6.45;5.40;;;9.50;99.90;;;;;;5099625;28;20538;-84
2022/09/20 06:09:42;;;;;;;7.30;6.00;;;9.50;99.90;;;;;;5058102;28;20218;-83
2022/09/20 06:12:23;;;;;;;6.47;5.88;;;9.60;99.90;;;;;;5063636;28;20202;-84
2022/09/20 06:15:00;;;;;;;6.93;6.10;;;9.60;99.90;;;;;;5098462;28;20236;-83
2022/09/20 06:17:32;;;;;;;8.10;7.30;;;9.70;99.90;;;;;;5097878;28;20194;-84
2022/09/20 06:20:16;;;;;;;5.55;5.05;;;9.70;99.90;;;;;;5098241;28;20204;-83
2022/09/20 06:22:47;;;;;;;8.13;5.90;;;9.70;99.90;;;;;;5080300;28;20202;-83
2022/09/20 06:25:20;;;;;;;10.32;6.15;;;9.80;99.90;;;;;;5085925;28;20227;-83
2022/09/20 06:27:52;;;;;;;6.82;6.07;;;9.90;99.90;;;;;;5097161;28;20202;-84
2022/09/20 06:30:22;;;;;;;6.30;5.57;;;10.00;99.90;;;;;;5086523;28;20212;-83
2022/09/20 06:32:57;;;;;;;5.75;5.22;;;10.00;99.90;;;;;;5077164;28;20214;-83
2022/09/20 06:35:31;;;;;;;12.80;6.15;;;10.10;99.90;;;;;;5078662;28;20284;-84
2022/09/20 06:43:40;;;;;;;8.47;5.77;;;10.50;99.90;;;;;;5081527;28;20238;-85
2022/09/20 06:46:07;;;;;;;7.93;5.63;;;10.60;99.90;;;;;;5080614;28;20888;-84
2022/09/20 06:48:38;;;;;;;5.97;4.77;;;10.60;99.90;;;;;;5079374;28;20444;-84
2022/09/20 06:51:08;;;;;;;8.00;4.93;;;10.70;99.90;;;;;;5083545;28;20459;-84
2022/09/20 06:53:41;;;;;;;6.43;5.70;;;10.60;99.90;;;;;;5082501;28;20470;-84
2022/09/20 06:56:13;;;;;;;7.90;5.27;;;10.60;99.90;;;;;;5095870;28;20448;-86
2022/09/20 06:58:44;;;;;;;6.03;5.27;;;10.60;99.90;;;;;;5103563;28;20507;-84
2022/09/20 07:01:14;;;;;;;6.50;4.60;;;10.60;99.90;;;;;;5087658;28;20457;-84
2022/09/20 07:03:42;;;;;;;10.80;4.97;;;10.80;99.90;;;;;;5082596;28;20505;-86
2022/09/20 07:06:14;;;;;;;5.13;4.57;;;10.70;99.90;;;;;;5082751;28;20485;-83
2022/09/20 07:08:50;;;;;;;4.73;4.43;;;10.70;99.90;;;;;;5091878;28;20464;-84
2022/09/20 07:11:20;;;;;;;5.85;4.80;;;10.70;99.90;;;;;;5101028;28;20470;-86
2022/09/20 07:13:51;;;;;;;8.17;6.63;;;10.90;99.90;;;;;;5090524;28;20223;-86
2022/09/20 07:16:18;;;;;;;8.47;5.50;;;10.80;99.90;;;;;;5081598;28;21003;-84
2022/09/20 07:18:46;;;;;;;5.80;5.30;;;10.90;99.90;;;;;;5082040;28;20451;-84
2022/09/20 07:21:15;;;;;;;5.83;5.27;;;11.00;99.90;;;;;;5089317;28;20456;-87
2022/09/20 07:23:44;;;;;;;5.20;4.70;;;11.00;99.90;;;;;;5103038;28;20475;-84
2022/09/20 07:26:18;;;;;;;8.10;5.83;;;10.90;99.90;;;;;;5100566;28;20484;-85
2022/09/20 07:28:45;;;;;;;8.07;5.73;;;11.00;99.90;;;;;;5100926;28;20440;-85
2022/09/20 07:31:12;;;;;;;6.43;5.20;;;10.90;99.90;;;;;;5101691;28;20447;-84
2022/09/20 07:33:39;;;;;;;7.17;4.43;;;11.10;99.90;;;;;;5103392;28;20475;-85
2022/09/20 07:36:06;;;;;;;4.65;4.25;;;11.10;99.90;;;;;;5101327;28;20447;-83
2022/09/20 07:38:33;;;;;;;6.47;4.82;;;11.20;99.90;;;;;;5113255;28;20218;-87
2022/09/20 07:41:02;;;;;;;9.52;3.95;;;11.10;99.90;;;;;;5104843;28;20209;-84
2022/09/20 07:43:31;;;;;;;5.07;4.57;;;11.10;99.90;;;;;;5101659;28;20225;-84
2022/09/20 07:45:59;;;;;;;5.20;4.00;;;11.00;99.90;;;;;;5102959;28;20642;-84
2022/09/20 07:48:27;;;;;;;6.73;4.70;;;11.00;99.90;;;;;;5101800;28;20205;-85
2022/09/20 07:50:55;;;;;;;9.40;4.83;;;11.20;99.90;;;;;;5101730;28;20984;-84
2022/09/20 07:53:22;;;;;;;6.07;4.50;;;11.20;99.90;;;;;;5101600;28;20504;-85
2022/09/20 07:56:00;;;;;;;7.10;4.85;;;11.30;99.90;;;;;;5101453;28;20950;-84
2022/09/20 07:58:27;;;;;;;7.57;4.43;;;11.40;99.90;;;;;;5101530;28;20215;-84
2022/09/20 08:00:57;;;;;;;4.50;4.10;;;11.50;99.90;;;;;;5102229;28;20451;-85
2022/09/20 08:03:24;;;;;;;7.23;4.10;;;11.60;99.90;;;;;;5101344;28;20461;-87
2022/09/20 08:05:52;;;;;;;4.93;4.03;;;11.70;99.90;;;;;;5102298;28;20489;-84
2022/09/20 08:08:19;;;;;;;4.00;3.70;;;11.60;99.90;;;;;;5102800;28;20499;-85
2022/09/20 08:10:47;;;;;;;4.20;3.60;;;11.70;99.90;;;;;;5103218;28;20544;-87
2022/09/20 08:13:15;;;;;;;4.50;4.10;;;11.80;99.90;;;;;;5102122;28;20505;-87
2022/09/20 08:15:43;;;;;;;2.60;2.40;;;11.80;99.90;;;;;;5102827;28;20430;-86
2022/09/20 08:18:13;;;;;;;3.13;2.67;;;11.80;99.90;;;;;;5102473;28;20460;-85
2022/09/20 08:20:39;;;;;;;5.13;3.20;;;11.80;99.90;;;;;;5102829;28;20465;-84
2022/09/20 08:23:08;;;;;;;5.37;3.27;;;11.80;99.90;;;;;;5101602;28;20467;-85
2022/09/20 08:25:35;;;;;;;3.47;3.20;;;12.00;99.90;;;;;;5102479;28;20481;-85
2022/09/20 08:28:02;;;;;;;4.17;2.47;;;12.00;99.90;;;;;;5101022;28;20451;-84
2022/09/20 08:30:29;;;;;;;3.03;2.73;;;11.90;99.90;;;;;;5101163;28;20444;-85
2022/09/20 08:32:58;;;;;;;7.07;5.90;;;12.10;99.90;;;;;;5111776;28;20493;-86
2022/09/20 08:35:28;;;;;;;4.80;2.83;;;12.00;99.90;;;;;;5104746;28;20446;-87
2022/09/20 08:37:55;;;;;;;3.97;2.20;;;11.80;99.90;;;;;;5099674;28;20888;-85
2022/09/20 08:40:24;;;;;;;7.07;2.20;;;11.80;99.90;;;;;;5099437;28;20455;-84
2022/09/20 08:42:53;;;;;;;13.47;2.80;;;11.70;99.90;;;;;;5099313;28;20496;-84
2022/09/20 08:45:23;;;;;;;3.27;2.07;;;11.90;99.90;;;;;;5099004;28;20549;-84
2022/09/20 08:47:53;;;;;;;6.80;2.83;;;12.00;99.90;;;;;;5099002;28;20453;-84
2022/09/20 08:50:20;;;;;;;7.93;2.93;;;12.10;99.90;;;;;;5099513;28;20446;-84
2022/09/20 08:52:53;;;;;;;2.90;1.47;;;12.20;99.90;;;;;;5098320;28;20451;-84
2022/09/20 08:55:23;;;;;;;2.87;2.27;;;12.30;99.90;;;;;;5098692;28;20474;-84
2022/09/20 08:57:52;;;;;;;3.03;2.10;;;12.40;99.90;;;;;;5098234;28;20450;-84
2022/09/20 09:00:21;;;;;;;3.37;2.07;;;12.50;99.90;;;;;;5098153;28;20452;-86
2022/09/20 09:02:51;;;;;;;2.17;1.80;;;12.60;99.90;;;;;;5097690;28;20961;-84
2022/09/20 09:05:33;;;;;;;10.07;3.27;;;12.70;99.90;;;;;;5097493;28;20908;-83
2022/09/20 09:08:06;;;;;;;4.60;2.33;;;12.70;99.90;;;;;;5098720;28;20438;-84
2022/09/20 09:10:37;;;;;;;4.33;2.60;;;12.80;99.90;;;;;;5098216;28;20442;-83
2022/09/20 09:13:05;;;;;;;2.30;1.70;;;13.00;99.90;;;;;;5098148;28;20431;-83
2022/09/20 09:15:35;;;;;;;5.47;2.30;;;13.20;99.90;;;;;;5097808;28;20433;-84
2022/09/20 09:18:02;;;;;;;2.53;1.97;;;13.30;99.90;;;;;;5097582;28;20442;-85
2022/09/20 09:20:29;;;;;;;2.00;1.43;;;13.30;99.90;;;;;;5097517;28;20450;-83
2022/09/20 09:23:03;;;;;;;2.07;1.87;;;13.40;99.90;;;;;;5097032;28;20453;-85
2022/09/20 09:25:33;;;;;;;3.23;2.10;;;13.30;99.90;;;;;;5097002;28;20480;-83
2022/09/20 09:28:04;;;;;;;2.73;2.13;;;13.20;99.90;;;;;;5105132;28;20439;-82
2022/09/20 09:30:33;;;;;;;3.90;1.97;;;13.10;99.90;;;;;;5097126;28;20454;-83
2022/09/20 09:33:24;;;;;;;4.03;3.00;;;13.10;99.90;;;;;;5097192;28;20446;-83
2022/09/20 09:35:57;;;;;;;3.27;2.00;;;13.00;99.90;;;;;;5097179;28;20438;-84
2022/09/20 09:38:28;;;;;;;1.77;1.67;;;13.10;99.90;;;;;;5097241;28;20497;-83
2022/09/20 09:40:56;;;;;;;1.57;1.47;;;13.10;99.90;;;;;;5097147;28;20449;-82
2022/09/20 09:43:27;;;;;;;2.13;1.13;;;13.10;99.90;;;;;;5096990;28;20478;-81
2022/09/20 09:45:55;;;;;;;1.47;1.40;;;13.10;99.90;;;;;;5096924;28;20509;-84
2022/09/20 09:48:26;;;;;;;2.03;1.83;;;13.20;99.90;;;;;;5097076;28;20484;-82
2022/09/20 09:51:10;;;;;;;4.33;2.27;;;13.30;99.90;;;;;;5096694;28;20453;-84
2022/09/20 09:53:39;;;;;;;2.53;2.30;;;13.50;99.90;;;;;;5097106;28;20466;-85
2022/09/20 09:56:28;;;;;;;5.13;2.13;;;13.70;99.90;;;;;;5097525;28;20823;-82
2022/09/20 09:59:16;;;;;;;2.87;1.50;;;14.00;99.90;;;;;;5096253;28;20731;-82
2022/09/20 10:01:55;;;;;;;6.47;2.20;;;14.40;99.90;;;;;;5096582;28;20496;-82
2022/09/20 10:04:32;;;;;;;3.30;1.47;;;14.50;99.90;;;;;;5096197;28;20470;-82
2022/09/20 10:07:08;;;;;;;3.50;2.50;;;14.50;99.90;;;;;;5096735;28;20478;-85
2022/09/20 10:10:01;;;;;;;2.97;2.50;;;14.30;99.90;;;;;;5096844;28;20449;-81
2022/09/20 10:12:44;;;;;;;9.33;2.07;;;14.10;99.90;;;;;;5096356;28;20455;-82
2022/09/20 10:15:25;;;;;;;4.57;2.17;;;13.90;99.90;;;;;;5087373;22;20488;-87
2022/09/20 10:18:02;;;;;;;5.73;2.30;;;13.80;99.90;;;;;;5058725;28;20538;-86
2022/09/20 10:20:41;;;;;;;5.40;1.80;;;13.90;99.90;;;;;;5061151;28;20447;-86
2022/09/20 10:23:28;;;;;;;7.00;2.67;;;13.70;99.90;;;;;;5060283;28;20436;-86
2022/09/20 10:26:04;;;;;;;2.33;2.13;;;13.70;99.90;;;;;;5039087;28;20598;-86
2022/09/20 10:28:47;;;;;;;3.40;1.87;;;13.80;99.90;;;;;;5039557;28;20461;-86
2022/09/20 10:31:27;;;;;;;3.97;2.57;;;13.90;99.90;;;;;;5039539;28;20491;-85
2022/09/20 10:34:10;;;;;;;2.40;1.83;;;14.00;99.90;;;;;;5039156;28;20500;-86
2022/09/20 10:36:46;;;;;;;1.53;1.43;;;14.10;99.90;;;;;;5038740;28;20811;-86
2022/09/20 10:39:19;;;;;;;2.50;2.00;;;14.00;99.90;;;;;;5038924;28;20449;-86
2022/09/20 10:44:56;;;;;;;2.87;2.40;;;14.20;99.90;;;;;;5038949;28;20451;-86
2022/09/20 10:47:30;;;;;;;4.10;1.97;;;14.30;99.90;;;;;;5038766;28;20489;-86
2022/09/20 10:50:03;;;;;;;4.13;2.23;;;14.50;99.90;;;;;;5039606;28;20460;-86
2022/09/20 10:52:48;;;;;;;3.07;1.90;;;14.60;99.90;;;;;;5039207;28;20879;-86
2022/09/20 10:55:44;;;;;;;2.00;1.90;;;14.80;99.50;;;;;;5038993;28;20477;-86
2022/09/20 10:58:38;;;;;;;4.23;2.27;;;14.90;99.20;;;;;;5038002;28;20453;-86
2022/09/20 11:01:12;;;;;;;4.70;3.20;;;14.80;99.00;;;;;;5039257;28;20453;-87
2022/09/20 11:04:07;;;;;;;3.77;2.00;;;14.70;98.80;;;;;;5039362;28;20809;-88
2022/09/20 11:06:45;;;;;;;3.37;2.63;;;14.60;99.10;;;;;;5039940;28;20854;-88
2022/09/20 11:09:17;;;;;;;4.80;3.50;;;14.50;99.20;;;;;;5039818;28;20441;-87
2022/09/20 11:11:48;;;;;;;4.83;1.97;;;14.40;98.90;;;;;;5040936;28;20437;-88
2022/09/20 11:14:21;;;;;;;2.47;2.30;;;14.50;99.40;;;;;;5041139;28;20477;-88
2022/09/20 11:16:53;;;;;;;6.00;1.97;;;14.50;99.00;;;;;;5040768;28;20457;-88
2022/09/20 11:19:26;;;;;;;2.10;1.90;;;14.50;97.90;;;;;;5039995;28;20465;-86
2022/09/20 11:21:57;;;;;;;2.40;2.20;;;14.40;97.60;;;;;;5040658;28;20461;-86
2022/09/20 11:24:31;;;;;;;2.40;1.90;;;14.50;97.90;;;;;;5040931;28;20479;-87
2022/09/20 11:27:02;;;;;;;1.90;1.27;;;14.90;99.90;;;;;;5040429;28;20489;-86
2022/09/20 11:29:36;;;;;;;1.53;1.23;;;15.70;96.70;;;;;;5040988;28;20460;-86
2022/09/20 11:32:11;;;;;;;1.57;1.47;;;16.40;94.90;;;;;;5040132;28;20457;-85
2022/09/20 11:34:52;;;;;;;3.17;1.27;;;17.00;94.10;;;;;;5040398;28;20489;-86
2022/09/20 11:37:22;;;;;;;2.93;1.47;;;17.80;91.00;;;;;;5039976;28;20489;-86
2022/09/20 11:39:53;;;;;;;1.67;1.17;;;18.10;85.20;;;;;;5039568;28;20445;-86
2022/09/20 11:42:26;;;;;;;2.13;1.60;;;18.70;85.90;;;;;;5041435;28;20464;-86
2022/09/20 11:44:55;;;;;;;3.23;1.33;;;19.00;81.40;;;;;;5039433;28;20467;-86
2022/09/20 11:47:26;;;;;;;3.50;1.70;;;19.20;79.50;;;;;;5039389;28;20490;-87
2022/09/20 11:50:06;;;;;;;2.40;1.40;;;19.40;79.30;;;;;;5040757;28;20948;-86
2022/09/20 11:52:57;;;;;;;4.07;1.87;;;19.40;78.00;;;;;;5040835;28;20445;-86
2022/09/20 11:55:41;;;;;;;5.43;2.47;;;18.90;78.50;;;;;;5040994;28;20475;-86
2022/09/20 11:58:11;;;;;;;3.60;2.00;;;17.70;77.50;;;;;;5040791;28;20471;-86
2022/09/20 12:00:43;;;;;;;5.30;2.23;;;17.00;82.30;;;;;;5041482;28;20951;-86
2022/09/20 12:03:23;;;;;;;1.17;1.07;;;16.50;84.20;;;;;;5040465;28;20476;-86
2022/09/20 12:05:57;;;;;;;6.10;1.80;;;15.90;84.10;;;;;;5040771;28;20454;-86
2022/09/20 12:08:27;;;;;;;3.30;1.90;;;15.40;86.90;;;;;;5040935;28;20463;-86
2022/09/20 12:10:58;;;;;;;2.23;1.20;;;15.10;86.20;;;;;;5041011;28;20445;-84
2022/09/20 12:13:27;;;;;;;3.70;2.17;;;15.00;87.00;;;;;;5040711;28;20458;-86
2022/09/20 12:16:04;;;;;;;4.77;1.70;;;15.00;84.50;;;;;;5041088;28;20430;-86
2022/09/20 12:18:47;;;;;;;3.47;2.13;;;15.10;86.80;;;;;;5040016;28;20824;-86
2022/09/20 12:21:16;;;;;;;3.27;1.67;;;15.30;81.80;;;;;;5040385;28;20785;-86
2022/09/20 12:23:59;;;;;;;3.10;1.90;;;15.90;79.20;;;;;;5040338;28;20470;-85
2022/09/20 12:26:46;;;;;;;2.30;1.60;;;16.50;77.30;;;;;;5040346;28;20548;-86
2022/09/20 12:29:51;;;;;;;1.90;1.80;;;17.70;78.20;;;;;;5040307;28;20941;-86
2022/09/20 12:32:53;;;;;;;2.60;2.07;;;19.30;75.00;;;;;;5040539;28;20512;-86
2022/09/20 12:36:00;;;;;;;2.53;2.33;;;19.60;68.60;;;;;;5040335;28;20559;-86
2022/09/20 12:38:32;;;;;;;1.80;1.43;;;19.40;73.50;;;;;;5040708;28;20463;-86
2022/09/20 12:41:02;;;;;;;1.67;1.57;;;20.00;70.70;;;;;;5039707;28;20437;-86
2022/09/20 12:43:31;;;;;;;3.17;1.83;;;20.30;69.70;;;;;;5041195;28;20445;-86
2022/09/20 12:45:59;;;;;;;1.90;1.80;;;20.60;68.90;;;;;;5041040;28;20445;-86
2022/09/20 12:48:32;;;;;;;2.07;1.97;;;20.90;65.80;;;;;;5041080;28;20441;-86
2022/09/20 12:54:04;;;;;;;3.07;2.93;;;21.10;65.80;;;;;;5040926;28;20543;-86
2022/09/20 12:56:35;;;;;;;2.53;1.50;;;20.90;64.00;;;;;;5040569;28;20453;-85
2022/09/20 12:59:06;;;;;;;2.70;1.97;;;21.30;62.60;;;;;;5039967;28;20441;-86
2022/09/20 13:01:39;;;;;;;1.70;1.50;;;21.80;63.80;;;;;;5040051;28;20447;-85
2022/09/20 13:04:42;;;;;;;1.73;1.50;;;22.30;63.00;;;;;;5039963;28;20451;-86
2022/09/20 13:07:51;;;;;;;3.90;1.90;;;22.20;60.40;;;;;;5028429;28;20483;-85
2022/09/20 13:10:29;;;;;;;2.00;1.90;;;22.30;61.50;;;;;;5023200;28;20471;-87
2022/09/20 13:13:02;;;;;;;3.60;2.00;;;22.40;59.50;;;;;;5039385;28;20498;-86
2022/09/20 13:15:31;;;;;;;3.73;2.10;;;22.50;60.20;;;;;;5039485;28;20506;-86
2022/09/20 13:18:01;;;;;;;2.40;1.60;;;22.90;61.10;;;;;;5038948;28;20455;-86
2022/09/20 13:20:33;;;;;;;2.53;1.53;;;23.30;58.30;;;;;;5038343;28;20448;-88
2022/09/20 13:23:01;;;;;;;3.47;1.70;;;23.20;57.10;;;;;;5038655;28;20453;-85
2022/09/20 13:25:30;;;;;;;2.30;1.60;;;22.90;58.10;;;;;;5038023;28;20479;-86
2022/09/20 13:28:06;;;;;;;1.50;1.40;;;22.60;59.80;;;;;;5037214;28;20495;-85
2022/09/20 13:30:34;;;;;;;3.87;2.13;;;21.60;57.80;;;;;;5037317;28;20499;-85
2022/09/20 13:33:16;;;;;;;3.20;2.87;;;21.00;58.50;;;;;;5037346;28;20468;-88
2022/09/20 13:35:46;;;;;;;2.80;2.30;;;20.20;59.10;;;;;;5037235;28;20472;-85
2022/09/20 13:38:21;;;;;;;2.00;1.60;;;19.60;61.00;;;;;;5036978;28;20444;-83
2022/09/20 13:40:50;;;;;;;4.90;2.53;;;19.00;62.00;;;;;;5037359;28;20452;-85
2022/09/20 13:43:27;;;;;;;3.30;2.00;;;18.50;64.90;;;;;;5036307;28;20457;-87
2022/09/20 13:45:56;;;;;;;4.70;2.50;;;18.10;66.90;;;;;;5037097;28;20534;-84
2022/09/20 13:48:25;;;;;;;3.80;2.10;;;17.80;68.50;;;;;;5036445;28;20487;-85
2022/09/20 13:50:52;;;;;;;1.90;1.80;;;17.50;68.60;;;;;;5037176;28;20513;-85
2022/09/20 13:53:19;;;;;;;1.50;1.40;;;17.10;70.30;;;;;;5036603;28;20460;-84